sensor_id;sensor_type;location;lat;lon;timestamp;P1;durP1;ratioP1;P2;durP2;ratioP2
52948;SDS011;38812;50.942;3.644;2023-05-29T00:00:31;19.95;;;7.47;;
52948;SDS011;38812;50.942;3.644;2023-05-29T00:02:56;16.77;;;6.40;;
52948;SDS011;38812;50.942;3.644;2023-05-29T00:05:22;17.80;;;6.55;;
52948;SDS011;38812;50.942;3.644;2023-05-29T00:07:47;15.05;;;6.60;;
52948;SDS011;38812;50.942;3.644;2023-05-29T00:10:14;15.35;;;7.20;;
52948;SDS011;38812;50.942;3.644;2023-05-29T00:12:40;14.90;;;6.10;;
52948;SDS011;38812;50.942;3.644;2023-05-29T00:15:06;14.48;;;5.85;;
52948;SDS011;38812;50.942;3.644;2023-05-29T00:17:32;11.52;;;6.07;;
52948;SDS011;38812;50.942;3.644;2023-05-29T00:20:00;13.13;;;6.00;;
52948;SDS011;38812;50.942;3.644;2023-05-29T00:22:28;10.77;;;6.90;;
52948;SDS011;38812;50.942;3.644;2023-05-29T00:24:53;10.90;;;5.90;;
52948;SDS011;38812;50.942;3.644;2023-05-29T00:27:19;13.80;;;7.25;;
52948;SDS011;38812;50.942;3.644;2023-05-29T00:29:45;15.27;;;6.97;;
52948;SDS011;38812;50.942;3.644;2023-05-29T00:32:10;17.55;;;6.75;;
52948;SDS011;38812;50.942;3.644;2023-05-29T00:34:36;11.27;;;6.57;;
52948;SDS011;38812;50.942;3.644;2023-05-29T00:37:01;19.05;;;6.72;;
52948;SDS011;38812;50.942;3.644;2023-05-29T00:39:27;14.02;;;6.40;;
52948;SDS011;38812;50.942;3.644;2023-05-29T00:41:52;16.30;;;5.47;;
52948;SDS011;38812;50.942;3.644;2023-05-29T00:44:18;9.32;;;5.10;;
52948;SDS011;38812;50.942;3.644;2023-05-29T00:46:45;9.52;;;5.25;;
52948;SDS011;38812;50.942;3.644;2023-05-29T00:49:11;10.43;;;4.85;;
52948;SDS011;38812;50.942;3.644;2023-05-29T00:51:37;11.05;;;4.68;;
52948;SDS011;38812;50.942;3.644;2023-05-29T00:54:04;11.75;;;5.03;;
52948;SDS011;38812;50.942;3.644;2023-05-29T00:56:31;16.40;;;6.28;;
52948;SDS011;38812;50.942;3.644;2023-05-29T00:58:57;9.57;;;5.00;;
52948;SDS011;38812;50.942;3.644;2023-05-29T01:01:23;15.55;;;4.95;;
52948;SDS011;38812;50.942;3.644;2023-05-29T01:03:49;15.10;;;6.75;;
52948;SDS011;38812;50.942;3.644;2023-05-29T01:06:18;19.50;;;5.57;;
52948;SDS011;38812;50.942;3.644;2023-05-29T01:08:44;17.75;;;4.28;;
52948;SDS011;38812;50.942;3.644;2023-05-29T01:11:19;11.60;;;4.30;;
52948;SDS011;38812;50.942;3.644;2023-05-29T01:13:52;12.85;;;5.15;;
52948;SDS011;38812;50.942;3.644;2023-05-29T01:16:26;11.05;;;4.15;;
52948;SDS011;38812;50.942;3.644;2023-05-29T01:19:00;13.00;;;4.95;;
52948;SDS011;38812;50.942;3.644;2023-05-29T01:27:12;12.50;;;3.25;;
52948;SDS011;38812;50.942;3.644;2023-05-29T01:29:42;15.95;;;4.13;;
52948;SDS011;38812;50.942;3.644;2023-05-29T01:32:08;12.75;;;4.07;;
52948;SDS011;38812;50.942;3.644;2023-05-29T01:34:34;11.07;;;3.08;;
52948;SDS011;38812;50.942;3.644;2023-05-29T01:37:00;15.95;;;3.42;;
52948;SDS011;38812;50.942;3.644;2023-05-29T01:39:25;11.10;;;4.47;;
52948;SDS011;38812;50.942;3.644;2023-05-29T01:41:51;11.02;;;2.92;;
52948;SDS011;38812;50.942;3.644;2023-05-29T01:44:17;12.32;;;3.03;;
52948;SDS011;38812;50.942;3.644;2023-05-29T01:46:44;19.10;;;3.38;;
52948;SDS011;38812;50.942;3.644;2023-05-29T01:49:10;10.48;;;2.53;;
52948;SDS011;38812;50.942;3.644;2023-05-29T01:51:36;11.68;;;3.40;;
52948;SDS011;38812;50.942;3.644;2023-05-29T01:54:03;8.07;;;2.08;;
52948;SDS011;38812;50.942;3.644;2023-05-29T01:56:29;13.90;;;2.80;;
52948;SDS011;38812;50.942;3.644;2023-05-29T01:58:56;12.23;;;3.30;;
52948;SDS011;38812;50.942;3.644;2023-05-29T02:01:23;17.05;;;2.78;;
52948;SDS011;38812;50.942;3.644;2023-05-29T02:03:49;14.90;;;2.58;;
52948;SDS011;38812;50.942;3.644;2023-05-29T02:06:16;12.20;;;2.67;;
52948;SDS011;38812;50.942;3.644;2023-05-29T02:08:41;10.93;;;2.33;;
52948;SDS011;38812;50.942;3.644;2023-05-29T02:11:07;14.00;;;2.67;;
52948;SDS011;38812;50.942;3.644;2023-05-29T02:13:32;16.15;;;2.78;;
52948;SDS011;38812;50.942;3.644;2023-05-29T02:15:58;12.77;;;2.80;;
52948;SDS011;38812;50.942;3.644;2023-05-29T02:18:23;13.23;;;3.60;;
52948;SDS011;38812;50.942;3.644;2023-05-29T02:20:48;15.57;;;4.00;;
52948;SDS011;38812;50.942;3.644;2023-05-29T02:23:14;11.63;;;2.38;;
52948;SDS011;38812;50.942;3.644;2023-05-29T02:25:40;11.45;;;3.03;;
52948;SDS011;38812;50.942;3.644;2023-05-29T02:28:06;11.88;;;3.10;;
52948;SDS011;38812;50.942;3.644;2023-05-29T02:30:31;11.35;;;2.50;;
52948;SDS011;38812;50.942;3.644;2023-05-29T02:32:57;12.05;;;2.53;;
52948;SDS011;38812;50.942;3.644;2023-05-29T02:35:22;5.70;;;2.05;;
52948;SDS011;38812;50.942;3.644;2023-05-29T02:37:51;11.57;;;2.75;;
52948;SDS011;38812;50.942;3.644;2023-05-29T02:40:17;12.55;;;3.10;;
52948;SDS011;38812;50.942;3.644;2023-05-29T02:42:44;12.88;;;2.67;;
52948;SDS011;38812;50.942;3.644;2023-05-29T02:45:09;12.30;;;3.65;;
52948;SDS011;38812;50.942;3.644;2023-05-29T02:47:35;9.82;;;3.10;;
52948;SDS011;38812;50.942;3.644;2023-05-29T02:50:01;12.27;;;2.63;;
52948;SDS011;38812;50.942;3.644;2023-05-29T02:52:27;13.25;;;2.60;;
52948;SDS011;38812;50.942;3.644;2023-05-29T02:54:53;16.08;;;2.90;;
52948;SDS011;38812;50.942;3.644;2023-05-29T02:57:20;7.78;;;3.33;;
52948;SDS011;38812;50.942;3.644;2023-05-29T02:59:45;11.63;;;2.80;;
52948;SDS011;38812;50.942;3.644;2023-05-29T03:02:11;7.68;;;2.78;;
52948;SDS011;38812;50.942;3.644;2023-05-29T03:04:36;8.43;;;2.47;;
52948;SDS011;38812;50.942;3.644;2023-05-29T03:07:02;17.30;;;3.42;;
52948;SDS011;38812;50.942;3.644;2023-05-29T03:09:28;15.02;;;2.50;;
52948;SDS011;38812;50.942;3.644;2023-05-29T03:11:53;8.57;;;2.40;;
52948;SDS011;38812;50.942;3.644;2023-05-29T03:14:18;16.27;;;3.03;;
52948;SDS011;38812;50.942;3.644;2023-05-29T03:16:46;18.25;;;3.25;;
52948;SDS011;38812;50.942;3.644;2023-05-29T03:19:12;8.52;;;2.17;;
52948;SDS011;38812;50.942;3.644;2023-05-29T03:21:37;13.05;;;2.60;;
52948;SDS011;38812;50.942;3.644;2023-05-29T03:24:03;14.32;;;2.58;;
52948;SDS011;38812;50.942;3.644;2023-05-29T03:26:28;15.10;;;2.67;;
52948;SDS011;38812;50.942;3.644;2023-05-29T03:28:54;12.55;;;2.60;;
52948;SDS011;38812;50.942;3.644;2023-05-29T03:31:20;16.17;;;3.00;;
52948;SDS011;38812;50.942;3.644;2023-05-29T03:33:45;12.70;;;2.80;;
52948;SDS011;38812;50.942;3.644;2023-05-29T03:36:11;12.45;;;2.88;;
52948;SDS011;38812;50.942;3.644;2023-05-29T03:38:37;8.50;;;2.47;;
52948;SDS011;38812;50.942;3.644;2023-05-29T03:41:02;10.73;;;2.47;;
52948;SDS011;38812;50.942;3.644;2023-05-29T03:43:28;10.38;;;2.40;;
52948;SDS011;38812;50.942;3.644;2023-05-29T03:45:53;8.85;;;2.33;;
52948;SDS011;38812;50.942;3.644;2023-05-29T03:48:18;12.07;;;2.53;;
52948;SDS011;38812;50.942;3.644;2023-05-29T03:50:45;13.30;;;2.88;;
52948;SDS011;38812;50.942;3.644;2023-05-29T03:53:11;12.05;;;2.25;;
52948;SDS011;38812;50.942;3.644;2023-05-29T03:55:37;11.00;;;2.33;;
52948;SDS011;38812;50.942;3.644;2023-05-29T03:58:02;11.65;;;2.58;;
52948;SDS011;38812;50.942;3.644;2023-05-29T04:00:27;13.35;;;2.05;;
52948;SDS011;38812;50.942;3.644;2023-05-29T04:02:54;9.05;;;2.75;;
52948;SDS011;38812;50.942;3.644;2023-05-29T04:05:20;11.68;;;2.65;;
52948;SDS011;38812;50.942;3.644;2023-05-29T04:07:45;17.25;;;2.67;;
52948;SDS011;38812;50.942;3.644;2023-05-29T04:10:11;15.07;;;2.95;;
52948;SDS011;38812;50.942;3.644;2023-05-29T04:12:36;8.48;;;2.70;;
52948;SDS011;38812;50.942;3.644;2023-05-29T04:15:01;12.23;;;2.72;;
52948;SDS011;38812;50.942;3.644;2023-05-29T04:17:27;10.65;;;2.75;;
52948;SDS011;38812;50.942;3.644;2023-05-29T04:19:53;9.65;;;2.78;;
52948;SDS011;38812;50.942;3.644;2023-05-29T04:22:18;12.05;;;2.63;;
52948;SDS011;38812;50.942;3.644;2023-05-29T04:24:45;19.58;;;4.05;;
52948;SDS011;38812;50.942;3.644;2023-05-29T04:27:11;17.38;;;2.85;;
52948;SDS011;38812;50.942;3.644;2023-05-29T04:29:38;11.88;;;2.47;;
52948;SDS011;38812;50.942;3.644;2023-05-29T04:32:10;22.27;;;4.18;;
52948;SDS011;38812;50.942;3.644;2023-05-29T04:34:36;13.00;;;2.78;;
52948;SDS011;38812;50.942;3.644;2023-05-29T04:37:04;13.82;;;2.58;;
52948;SDS011;38812;50.942;3.644;2023-05-29T04:39:30;14.60;;;2.13;;
52948;SDS011;38812;50.942;3.644;2023-05-29T04:41:55;21.08;;;3.15;;
52948;SDS011;38812;50.942;3.644;2023-05-29T04:44:23;15.88;;;4.57;;
52948;SDS011;38812;50.942;3.644;2023-05-29T04:46:51;15.85;;;3.08;;
52948;SDS011;38812;50.942;3.644;2023-05-29T04:49:17;14.82;;;3.55;;
52948;SDS011;38812;50.942;3.644;2023-05-29T04:51:44;13.35;;;3.00;;
52948;SDS011;38812;50.942;3.644;2023-05-29T04:54:10;11.45;;;2.72;;
52948;SDS011;38812;50.942;3.644;2023-05-29T04:56:36;14.63;;;3.38;;
52948;SDS011;38812;50.942;3.644;2023-05-29T04:59:02;9.30;;;2.42;;
52948;SDS011;38812;50.942;3.644;2023-05-29T05:01:27;16.20;;;3.00;;
52948;SDS011;38812;50.942;3.644;2023-05-29T05:03:54;12.75;;;2.15;;
52948;SDS011;38812;50.942;3.644;2023-05-29T05:06:22;10.88;;;3.47;;
52948;SDS011;38812;50.942;3.644;2023-05-29T05:08:50;18.98;;;2.95;;
52948;SDS011;38812;50.942;3.644;2023-05-29T05:11:16;11.00;;;2.47;;
52948;SDS011;38812;50.942;3.644;2023-05-29T05:13:42;15.45;;;2.50;;
52948;SDS011;38812;50.942;3.644;2023-05-29T05:16:08;9.18;;;2.38;;
52948;SDS011;38812;50.942;3.644;2023-05-29T05:18:35;15.98;;;3.05;;
52948;SDS011;38812;50.942;3.644;2023-05-29T05:21:00;8.65;;;2.70;;
52948;SDS011;38812;50.942;3.644;2023-05-29T05:23:28;11.82;;;2.72;;
52948;SDS011;38812;50.942;3.644;2023-05-29T05:25:53;13.18;;;2.60;;
52948;SDS011;38812;50.942;3.644;2023-05-29T05:28:18;13.85;;;3.08;;
52948;SDS011;38812;50.942;3.644;2023-05-29T05:30:44;8.88;;;2.60;;
52948;SDS011;38812;50.942;3.644;2023-05-29T05:33:09;11.38;;;2.95;;
52948;SDS011;38812;50.942;3.644;2023-05-29T05:35:34;10.70;;;2.83;;
52948;SDS011;38812;50.942;3.644;2023-05-29T05:38:00;10.98;;;3.13;;
52948;SDS011;38812;50.942;3.644;2023-05-29T05:40:26;8.20;;;2.08;;
52948;SDS011;38812;50.942;3.644;2023-05-29T05:42:51;14.07;;;2.90;;
52948;SDS011;38812;50.942;3.644;2023-05-29T05:45:16;18.05;;;3.67;;
52948;SDS011;38812;50.942;3.644;2023-05-29T05:47:42;13.65;;;3.10;;
52948;SDS011;38812;50.942;3.644;2023-05-29T05:50:07;11.48;;;2.40;;
52948;SDS011;38812;50.942;3.644;2023-05-29T05:52:33;14.23;;;2.92;;
52948;SDS011;38812;50.942;3.644;2023-05-29T05:54:59;13.05;;;3.03;;
52948;SDS011;38812;50.942;3.644;2023-05-29T05:57:24;14.60;;;3.40;;
52948;SDS011;38812;50.942;3.644;2023-05-29T05:59:50;9.80;;;2.75;;
52948;SDS011;38812;50.942;3.644;2023-05-29T06:02:16;14.95;;;2.78;;
52948;SDS011;38812;50.942;3.644;2023-05-29T06:04:41;13.18;;;2.80;;
52948;SDS011;38812;50.942;3.644;2023-05-29T06:07:06;16.33;;;3.50;;
52948;SDS011;38812;50.942;3.644;2023-05-29T06:09:32;14.00;;;3.65;;
52948;SDS011;38812;50.942;3.644;2023-05-29T06:11:58;13.18;;;3.17;;
52948;SDS011;38812;50.942;3.644;2023-05-29T06:14:24;10.70;;;3.03;;
52948;SDS011;38812;50.942;3.644;2023-05-29T06:16:49;15.63;;;2.80;;
52948;SDS011;38812;50.942;3.644;2023-05-29T06:19:15;11.38;;;3.20;;
52948;SDS011;38812;50.942;3.644;2023-05-29T06:21:41;10.18;;;2.80;;
52948;SDS011;38812;50.942;3.644;2023-05-29T06:24:06;11.32;;;2.90;;
52948;SDS011;38812;50.942;3.644;2023-05-29T06:26:32;15.82;;;3.00;;
52948;SDS011;38812;50.942;3.644;2023-05-29T06:28:57;22.05;;;2.95;;
52948;SDS011;38812;50.942;3.644;2023-05-29T06:31:22;14.82;;;2.78;;
52948;SDS011;38812;50.942;3.644;2023-05-29T06:33:48;8.68;;;2.88;;
52948;SDS011;38812;50.942;3.644;2023-05-29T06:36:13;13.73;;;2.83;;
52948;SDS011;38812;50.942;3.644;2023-05-29T06:38:39;18.77;;;3.35;;
52948;SDS011;38812;50.942;3.644;2023-05-29T06:41:05;13.23;;;3.35;;
52948;SDS011;38812;50.942;3.644;2023-05-29T06:43:30;16.55;;;3.00;;
52948;SDS011;38812;50.942;3.644;2023-05-29T06:45:55;12.07;;;2.63;;
52948;SDS011;38812;50.942;3.644;2023-05-29T06:48:21;14.20;;;2.28;;
52948;SDS011;38812;50.942;3.644;2023-05-29T06:50:47;13.73;;;3.60;;
52948;SDS011;38812;50.942;3.644;2023-05-29T06:53:13;16.40;;;3.45;;
52948;SDS011;38812;50.942;3.644;2023-05-29T06:55:38;6.80;;;2.13;;
52948;SDS011;38812;50.942;3.644;2023-05-29T06:58:05;11.45;;;4.13;;
52948;SDS011;38812;50.942;3.644;2023-05-29T07:00:31;12.23;;;2.47;;
52948;SDS011;38812;50.942;3.644;2023-05-29T07:02:57;9.00;;;2.10;;
52948;SDS011;38812;50.942;3.644;2023-05-29T07:05:22;13.88;;;2.65;;
52948;SDS011;38812;50.942;3.644;2023-05-29T07:07:47;9.07;;;2.67;;
52948;SDS011;38812;50.942;3.644;2023-05-29T07:10:13;14.60;;;2.38;;
52948;SDS011;38812;50.942;3.644;2023-05-29T07:12:38;17.45;;;2.70;;
52948;SDS011;38812;50.942;3.644;2023-05-29T07:15:04;11.68;;;2.50;;
52948;SDS011;38812;50.942;3.644;2023-05-29T07:17:29;19.05;;;2.78;;
52948;SDS011;38812;50.942;3.644;2023-05-29T07:19:55;16.42;;;2.72;;
52948;SDS011;38812;50.942;3.644;2023-05-29T07:22:20;9.90;;;1.95;;
52948;SDS011;38812;50.942;3.644;2023-05-29T07:24:46;15.15;;;2.88;;
52948;SDS011;38812;50.942;3.644;2023-05-29T07:27:11;12.98;;;2.70;;
52948;SDS011;38812;50.942;3.644;2023-05-29T07:29:36;11.75;;;2.60;;
52948;SDS011;38812;50.942;3.644;2023-05-29T07:32:02;11.75;;;3.95;;
52948;SDS011;38812;50.942;3.644;2023-05-29T07:34:27;11.80;;;2.80;;
52948;SDS011;38812;50.942;3.644;2023-05-29T07:37:02;15.60;;;2.78;;
52948;SDS011;38812;50.942;3.644;2023-05-29T07:39:33;12.60;;;2.28;;
52948;SDS011;38812;50.942;3.644;2023-05-29T07:42:00;13.05;;;2.10;;
52948;SDS011;38812;50.942;3.644;2023-05-29T07:44:27;10.10;;;2.58;;
52948;SDS011;38812;50.942;3.644;2023-05-29T07:46:53;12.10;;;2.72;;
52948;SDS011;38812;50.942;3.644;2023-05-29T07:49:21;8.18;;;2.15;;
52948;SDS011;38812;50.942;3.644;2023-05-29T07:51:47;12.15;;;2.50;;
52948;SDS011;38812;50.942;3.644;2023-05-29T07:54:12;12.18;;;2.80;;
52948;SDS011;38812;50.942;3.644;2023-05-29T07:56:37;8.32;;;2.65;;
52948;SDS011;38812;50.942;3.644;2023-05-29T07:59:05;11.70;;;2.90;;
52948;SDS011;38812;50.942;3.644;2023-05-29T08:01:32;11.05;;;2.78;;
52948;SDS011;38812;50.942;3.644;2023-05-29T08:03:57;9.43;;;2.22;;
52948;SDS011;38812;50.942;3.644;2023-05-29T08:06:23;13.05;;;2.15;;
52948;SDS011;38812;50.942;3.644;2023-05-29T08:08:48;12.00;;;2.38;;
52948;SDS011;38812;50.942;3.644;2023-05-29T08:11:13;6.47;;;2.58;;
52948;SDS011;38812;50.942;3.644;2023-05-29T08:13:39;8.23;;;2.00;;
52948;SDS011;38812;50.942;3.644;2023-05-29T08:16:04;9.10;;;2.70;;
52948;SDS011;38812;50.942;3.644;2023-05-29T08:18:30;8.10;;;1.80;;
52948;SDS011;38812;50.942;3.644;2023-05-29T08:20:57;12.88;;;2.80;;
52948;SDS011;38812;50.942;3.644;2023-05-29T08:23:22;10.13;;;2.58;;
52948;SDS011;38812;50.942;3.644;2023-05-29T08:25:48;9.95;;;2.00;;
52948;SDS011;38812;50.942;3.644;2023-05-29T08:28:14;8.25;;;2.70;;
52948;SDS011;38812;50.942;3.644;2023-05-29T08:30:40;8.93;;;3.17;;
52948;SDS011;38812;50.942;3.644;2023-05-29T08:33:05;15.43;;;2.70;;
52948;SDS011;38812;50.942;3.644;2023-05-29T08:35:31;9.82;;;2.63;;
52948;SDS011;38812;50.942;3.644;2023-05-29T08:37:57;8.00;;;2.40;;
52948;SDS011;38812;50.942;3.644;2023-05-29T08:40:22;13.75;;;2.65;;
52948;SDS011;38812;50.942;3.644;2023-05-29T08:42:54;11.18;;;2.45;;
52948;SDS011;38812;50.942;3.644;2023-05-29T08:45:23;10.57;;;2.72;;
52948;SDS011;38812;50.942;3.644;2023-05-29T08:47:51;13.20;;;2.70;;
52948;SDS011;38812;50.942;3.644;2023-05-29T08:50:18;6.75;;;2.00;;
52948;SDS011;38812;50.942;3.644;2023-05-29T08:52:45;16.35;;;3.05;;
52948;SDS011;38812;50.942;3.644;2023-05-29T08:55:11;14.30;;;3.50;;
52948;SDS011;38812;50.942;3.644;2023-05-29T08:57:37;8.90;;;2.35;;
52948;SDS011;38812;50.942;3.644;2023-05-29T09:00:04;8.88;;;2.63;;
52948;SDS011;38812;50.942;3.644;2023-05-29T09:02:37;9.90;;;1.98;;
52948;SDS011;38812;50.942;3.644;2023-05-29T09:05:02;15.07;;;2.50;;
52948;SDS011;38812;50.942;3.644;2023-05-29T09:07:29;10.18;;;2.67;;
52948;SDS011;38812;50.942;3.644;2023-05-29T09:09:55;11.00;;;2.53;;
52948;SDS011;38812;50.942;3.644;2023-05-29T09:12:20;10.05;;;2.80;;
52948;SDS011;38812;50.942;3.644;2023-05-29T09:14:46;11.68;;;2.92;;
52948;SDS011;38812;50.942;3.644;2023-05-29T09:17:12;7.80;;;2.42;;
52948;SDS011;38812;50.942;3.644;2023-05-29T09:19:38;8.20;;;2.45;;
52948;SDS011;38812;50.942;3.644;2023-05-29T09:22:06;8.80;;;2.33;;
52948;SDS011;38812;50.942;3.644;2023-05-29T09:24:33;12.23;;;2.55;;
52948;SDS011;38812;50.942;3.644;2023-05-29T09:27:00;9.43;;;2.55;;
52948;SDS011;38812;50.942;3.644;2023-05-29T09:29:26;18.58;;;3.80;;
52948;SDS011;38812;50.942;3.644;2023-05-29T09:31:55;10.25;;;3.15;;
52948;SDS011;38812;50.942;3.644;2023-05-29T09:34:22;9.18;;;2.05;;
52948;SDS011;38812;50.942;3.644;2023-05-29T09:36:49;11.70;;;2.90;;
52948;SDS011;38812;50.942;3.644;2023-05-29T09:39:16;13.68;;;2.75;;
52948;SDS011;38812;50.942;3.644;2023-05-29T09:41:45;17.20;;;3.03;;
52948;SDS011;38812;50.942;3.644;2023-05-29T09:44:14;14.65;;;2.97;;
52948;SDS011;38812;50.942;3.644;2023-05-29T09:46:41;15.80;;;3.15;;
52948;SDS011;38812;50.942;3.644;2023-05-29T09:49:11;9.80;;;3.03;;
52948;SDS011;38812;50.942;3.644;2023-05-29T09:51:38;13.82;;;2.78;;
52948;SDS011;38812;50.942;3.644;2023-05-29T09:54:16;15.93;;;2.78;;
52948;SDS011;38812;50.942;3.644;2023-05-29T09:56:43;14.13;;;2.92;;
52948;SDS011;38812;50.942;3.644;2023-05-29T09:59:12;12.27;;;2.88;;
52948;SDS011;38812;50.942;3.644;2023-05-29T10:01:42;11.57;;;2.20;;
52948;SDS011;38812;50.942;3.644;2023-05-29T10:04:09;7.90;;;2.58;;
52948;SDS011;38812;50.942;3.644;2023-05-29T10:06:41;10.85;;;2.47;;
52948;SDS011;38812;50.942;3.644;2023-05-29T10:09:09;10.57;;;2.97;;
52948;SDS011;38812;50.942;3.644;2023-05-29T10:11:37;15.48;;;2.67;;
52948;SDS011;38812;50.942;3.644;2023-05-29T10:14:06;11.77;;;2.60;;
52948;SDS011;38812;50.942;3.644;2023-05-29T10:16:33;9.88;;;3.25;;
52948;SDS011;38812;50.942;3.644;2023-05-29T10:19:05;9.43;;;2.22;;
52948;SDS011;38812;50.942;3.644;2023-05-29T10:21:35;9.73;;;2.10;;
52948;SDS011;38812;50.942;3.644;2023-05-29T10:24:02;15.68;;;3.50;;
52948;SDS011;38812;50.942;3.644;2023-05-29T10:26:32;13.18;;;2.75;;
52948;SDS011;38812;50.942;3.644;2023-05-29T10:29:16;9.40;;;2.40;;
52948;SDS011;38812;50.942;3.644;2023-05-29T10:39:34;11.65;;;2.58;;
52948;SDS011;38812;50.942;3.644;2023-05-29T10:41:59;11.02;;;2.38;;
52948;SDS011;38812;50.942;3.644;2023-05-29T10:49:25;13.70;;;3.47;;
52948;SDS011;38812;50.942;3.644;2023-05-29T10:51:51;9.38;;;2.60;;
52948;SDS011;38812;50.942;3.644;2023-05-29T10:54:21;10.73;;;2.60;;
52948;SDS011;38812;50.942;3.644;2023-05-29T10:56:52;12.02;;;2.88;;
52948;SDS011;38812;50.942;3.644;2023-05-29T10:59:20;15.80;;;2.72;;
52948;SDS011;38812;50.942;3.644;2023-05-29T11:01:45;13.73;;;3.55;;
52948;SDS011;38812;50.942;3.644;2023-05-29T11:06:42;23.38;;;4.60;;
52948;SDS011;38812;50.942;3.644;2023-05-29T11:12:12;10.50;;;2.42;;
52948;SDS011;38812;50.942;3.644;2023-05-29T11:17:28;8.68;;;2.50;;
52948;SDS011;38812;50.942;3.644;2023-05-29T11:20:06;10.27;;;2.83;;
52948;SDS011;38812;50.942;3.644;2023-05-29T11:25:14;12.00;;;2.67;;
52948;SDS011;38812;50.942;3.644;2023-05-29T11:27:40;10.00;;;2.60;;
52948;SDS011;38812;50.942;3.644;2023-05-29T11:30:07;10.73;;;3.03;;
52948;SDS011;38812;50.942;3.644;2023-05-29T11:32:33;8.77;;;2.35;;
52948;SDS011;38812;50.942;3.644;2023-05-29T11:35:03;7.93;;;2.53;;
52948;SDS011;38812;50.942;3.644;2023-05-29T11:37:33;14.20;;;2.80;;
52948;SDS011;38812;50.942;3.644;2023-05-29T11:40:10;12.95;;;2.72;;
52948;SDS011;38812;50.942;3.644;2023-05-29T11:42:46;12.40;;;2.33;;
52948;SDS011;38812;50.942;3.644;2023-05-29T11:45:20;6.38;;;2.38;;
52948;SDS011;38812;50.942;3.644;2023-05-29T11:47:50;10.32;;;2.75;;
52948;SDS011;38812;50.942;3.644;2023-05-29T11:50:18;18.92;;;3.10;;
52948;SDS011;38812;50.942;3.644;2023-05-29T11:52:47;11.10;;;3.28;;
52948;SDS011;38812;50.942;3.644;2023-05-29T11:55:12;7.05;;;2.40;;
52948;SDS011;38812;50.942;3.644;2023-05-29T11:57:38;16.17;;;4.30;;
52948;SDS011;38812;50.942;3.644;2023-05-29T12:00:04;15.57;;;2.70;;
52948;SDS011;38812;50.942;3.644;2023-05-29T12:02:38;6.90;;;2.05;;
52948;SDS011;38812;50.942;3.644;2023-05-29T12:05:03;9.10;;;2.60;;
52948;SDS011;38812;50.942;3.644;2023-05-29T12:07:30;10.75;;;2.90;;
52948;SDS011;38812;50.942;3.644;2023-05-29T12:09:55;13.05;;;2.63;;
52948;SDS011;38812;50.942;3.644;2023-05-29T12:12:23;10.18;;;2.50;;
52948;SDS011;38812;50.942;3.644;2023-05-29T12:14:51;7.85;;;2.47;;
52948;SDS011;38812;50.942;3.644;2023-05-29T12:17:17;8.63;;;2.45;;
52948;SDS011;38812;50.942;3.644;2023-05-29T12:19:43;13.20;;;2.50;;
52948;SDS011;38812;50.942;3.644;2023-05-29T12:22:09;13.55;;;2.75;;
52948;SDS011;38812;50.942;3.644;2023-05-29T12:24:35;14.88;;;3.85;;
52948;SDS011;38812;50.942;3.644;2023-05-29T12:27:03;9.23;;;2.58;;
52948;SDS011;38812;50.942;3.644;2023-05-29T12:29:30;14.10;;;2.92;;
52948;SDS011;38812;50.942;3.644;2023-05-29T12:31:58;9.48;;;2.88;;
52948;SDS011;38812;50.942;3.644;2023-05-29T12:34:24;11.65;;;1.98;;
52948;SDS011;38812;50.942;3.644;2023-05-29T12:36:50;14.55;;;2.65;;
52948;SDS011;38812;50.942;3.644;2023-05-29T12:39:15;10.38;;;2.97;;
52948;SDS011;38812;50.942;3.644;2023-05-29T12:41:41;9.77;;;2.50;;
52948;SDS011;38812;50.942;3.644;2023-05-29T12:44:06;8.07;;;2.70;;
52948;SDS011;38812;50.942;3.644;2023-05-29T12:46:39;8.60;;;2.75;;
52948;SDS011;38812;50.942;3.644;2023-05-29T12:49:11;10.13;;;2.70;;
52948;SDS011;38812;50.942;3.644;2023-05-29T12:51:46;17.30;;;2.97;;
52948;SDS011;38812;50.942;3.644;2023-05-29T12:54:12;11.98;;;3.53;;
52948;SDS011;38812;50.942;3.644;2023-05-29T12:56:38;6.55;;;2.10;;
52948;SDS011;38812;50.942;3.644;2023-05-29T12:59:06;7.05;;;2.33;;
52948;SDS011;38812;50.942;3.644;2023-05-29T13:01:32;8.63;;;2.58;;
52948;SDS011;38812;50.942;3.644;2023-05-29T13:03:57;8.57;;;2.40;;
52948;SDS011;38812;50.942;3.644;2023-05-29T13:06:23;9.43;;;2.60;;
52948;SDS011;38812;50.942;3.644;2023-05-29T13:08:48;10.20;;;2.25;;
52948;SDS011;38812;50.942;3.644;2023-05-29T13:11:14;10.13;;;2.90;;
52948;SDS011;38812;50.942;3.644;2023-05-29T13:13:39;14.23;;;2.70;;
52948;SDS011;38812;50.942;3.644;2023-05-29T13:16:04;7.90;;;2.53;;
52948;SDS011;38812;50.942;3.644;2023-05-29T13:18:30;9.48;;;2.42;;
52948;SDS011;38812;50.942;3.644;2023-05-29T13:20:56;7.03;;;2.40;;
52948;SDS011;38812;50.942;3.644;2023-05-29T13:23:21;7.30;;;2.40;;
52948;SDS011;38812;50.942;3.644;2023-05-29T13:25:47;10.07;;;2.40;;
52948;SDS011;38812;50.942;3.644;2023-05-29T13:28:14;11.23;;;2.40;;
52948;SDS011;38812;50.942;3.644;2023-05-29T13:30:39;10.80;;;2.22;;
52948;SDS011;38812;50.942;3.644;2023-05-29T13:33:05;7.97;;;2.95;;
52948;SDS011;38812;50.942;3.644;2023-05-29T13:35:30;9.90;;;2.83;;
52948;SDS011;38812;50.942;3.644;2023-05-29T13:37:56;7.93;;;2.35;;
52948;SDS011;38812;50.942;3.644;2023-05-29T13:40:21;6.43;;;1.95;;
52948;SDS011;38812;50.942;3.644;2023-05-29T13:42:46;20.42;;;2.95;;
52948;SDS011;38812;50.942;3.644;2023-05-29T13:45:12;8.25;;;2.08;;
52948;SDS011;38812;50.942;3.644;2023-05-29T13:47:38;8.98;;;2.13;;
52948;SDS011;38812;50.942;3.644;2023-05-29T13:50:04;7.13;;;3.50;;
52948;SDS011;38812;50.942;3.644;2023-05-29T13:52:30;10.88;;;2.25;;
52948;SDS011;38812;50.942;3.644;2023-05-29T13:54:55;8.48;;;1.98;;
52948;SDS011;38812;50.942;3.644;2023-05-29T13:57:24;9.63;;;1.90;;
52948;SDS011;38812;50.942;3.644;2023-05-29T13:59:49;9.93;;;2.78;;
52948;SDS011;38812;50.942;3.644;2023-05-29T14:02:15;5.70;;;2.03;;
52948;SDS011;38812;50.942;3.644;2023-05-29T14:04:40;8.57;;;2.20;;
52948;SDS011;38812;50.942;3.644;2023-05-29T14:07:07;9.88;;;2.05;;
52948;SDS011;38812;50.942;3.644;2023-05-29T14:09:33;7.55;;;2.45;;
52948;SDS011;38812;50.942;3.644;2023-05-29T14:11:58;5.68;;;1.60;;
52948;SDS011;38812;50.942;3.644;2023-05-29T14:14:24;4.65;;;1.90;;
52948;SDS011;38812;50.942;3.644;2023-05-29T14:16:51;8.18;;;1.67;;
52948;SDS011;38812;50.942;3.644;2023-05-29T14:19:17;9.30;;;2.15;;
52948;SDS011;38812;50.942;3.644;2023-05-29T14:21:43;7.53;;;2.42;;
52948;SDS011;38812;50.942;3.644;2023-05-29T14:24:10;5.07;;;1.98;;
52948;SDS011;38812;50.942;3.644;2023-05-29T14:26:35;9.52;;;1.92;;
52948;SDS011;38812;50.942;3.644;2023-05-29T14:29:01;8.85;;;1.73;;
52948;SDS011;38812;50.942;3.644;2023-05-29T14:31:27;7.75;;;1.80;;
52948;SDS011;38812;50.942;3.644;2023-05-29T14:33:53;11.75;;;2.08;;
52948;SDS011;38812;50.942;3.644;2023-05-29T14:36:18;6.65;;;2.00;;
52948;SDS011;38812;50.942;3.644;2023-05-29T14:38:43;9.90;;;2.10;;
52948;SDS011;38812;50.942;3.644;2023-05-29T14:41:11;7.85;;;1.80;;
52948;SDS011;38812;50.942;3.644;2023-05-29T14:43:37;9.02;;;2.53;;
52948;SDS011;38812;50.942;3.644;2023-05-29T14:46:04;11.57;;;2.05;;
52948;SDS011;38812;50.942;3.644;2023-05-29T14:48:29;8.45;;;1.80;;
52948;SDS011;38812;50.942;3.644;2023-05-29T14:50:55;12.27;;;2.15;;
52948;SDS011;38812;50.942;3.644;2023-05-29T14:53:20;10.75;;;3.63;;
52948;SDS011;38812;50.942;3.644;2023-05-29T14:55:47;6.60;;;1.90;;
52948;SDS011;38812;50.942;3.644;2023-05-29T14:58:13;7.45;;;2.20;;
52948;SDS011;38812;50.942;3.644;2023-05-29T15:00:39;14.70;;;2.10;;
52948;SDS011;38812;50.942;3.644;2023-05-29T15:03:05;10.55;;;2.20;;